Time;durP1;ratioP1;P1;durP2;ratioP2;P2;SDS_P1;SDS_P2;PMS_P1;PMS_P2;Temp;Humidity;BMP_temperature;BMP_pressure;BME280_temperature;BME280_humidity;BME280_pressure;Samples;Min_cycle;Max_cycle;Signal;HPM_P1;HPM_P2
2023/03/21 00:01:53;;;;;;;35.90;22.50;;;;;;;7.31;100.00;100944.26;108604;1258;61792;-69
2023/03/21 00:04:21;;;;;;;43.30;25.80;;;;;;;7.35;100.00;100948.06;108686;1258;59130;-69
2023/03/21 00:06:47;;;;;;;32.30;22.00;;;;;;;7.38;100.00;100942.54;108693;1258;73465;-69
2023/03/21 00:09:14;;;;;;;43.50;26.20;;;;;;;7.40;100.00;100938.21;108691;1259;71333;-69
2023/03/21 00:11:41;;;;;;;41.90;25.20;;;;;;;7.41;100.00;100942.12;108614;1258;71983;-69
2023/03/21 00:14:08;;;;;;;44.70;24.70;;;;;;;7.40;100.00;100933.23;108717;1260;59557;-69
2023/03/21 00:16:35;;;;;;;32.70;21.80;;;;;;;7.41;100.00;100931.41;108696;1258;58981;-69
2023/03/21 00:19:05;;;;;;;35.90;23.30;;;;;;;7.40;100.00;100928.15;108793;1258;75013;-69
2023/03/21 00:21:32;;;;;;;34.20;21.40;;;;;;;7.39;100.00;100931.05;108735;1258;70023;-70
2023/03/21 00:24:19;;;;;;;31.10;21.20;;;;;;;7.39;100.00;100928.80;108685;1258;73468;-70
2023/03/21 00:26:46;;;;;;;29.20;20.30;;;;;;;7.37;100.00;100925.05;108662;1258;61124;-69
2023/03/21 00:29:13;;;;;;;31.50;20.40;;;;;;;7.38;100.00;100926.21;108765;1258;59223;-69
2023/03/21 00:31:40;;;;;;;30.20;20.50;;;;;;;7.35;100.00;100921.52;108741;1257;75297;-69
2023/03/21 00:34:06;;;;;;;28.00;20.00;;;;;;;7.35;100.00;100921.91;108611;1258;71013;-69
2023/03/21 00:36:33;;;;;;;28.90;20.80;;;;;;;7.33;100.00;100919.08;108769;1258;72669;-69
2023/03/21 00:39:00;;;;;;;30.00;19.90;;;;;;;7.33;100.00;100915.68;108760;1258;59630;-69
2023/03/21 00:41:27;;;;;;;31.40;21.20;;;;;;;7.34;100.00;100914.05;108787;1258;58929;-69
2023/03/21 00:44:08;;;;;;;29.30;20.20;;;;;;;7.35;100.00;100914.88;108723;1258;76010;-69
2023/03/21 00:46:35;;;;;;;28.60;20.70;;;;;;;7.37;100.00;100915.77;108681;1258;71255;-69
2023/03/21 00:49:19;;;;;;;29.00;19.60;;;;;;;7.38;100.00;100913.35;108766;1258;73415;-69
2023/03/21 00:51:50;;;;;;;28.00;20.40;;;;;;;7.38;100.00;100909.45;108749;1258;62290;-70
2023/03/21 00:54:17;;;;;;;28.40;20.00;;;;;;;7.37;100.00;100910.06;108760;1258;60073;-69
2023/03/21 00:56:43;;;;;;;29.90;19.80;;;;;;;7.39;100.00;100903.77;108594;1258;73836;-70
2023/03/21 00:59:10;;;;;;;29.00;19.50;;;;;;;7.41;100.00;100905.52;108646;1258;70906;-70
2023/03/21 01:01:37;;;;;;;28.20;19.90;;;;;;;7.42;100.00;100902.81;108753;1258;71781;-70
2023/03/21 01:04:09;;;;;;;30.50;20.50;;;;;;;7.41;100.00;100898.83;108784;1258;61212;-70
2023/03/21 01:06:40;;;;;;;28.70;20.10;;;;;;;7.43;100.00;100896.86;108630;1258;60522;-70
2023/03/21 01:09:12;;;;;;;28.30;20.10;;;;;;;7.43;100.00;100896.54;108640;1257;73764;-70
2023/03/21 01:11:39;;;;;;;31.60;21.20;;;;;;;7.43;100.00;100894.36;108754;1258;69714;-70
2023/03/21 01:14:06;;;;;;;31.20;19.70;;;;;;;7.43;100.00;100892.67;108663;1258;72394;-70
2023/03/21 01:16:48;;;;;;;34.60;21.20;;;;;;;7.44;100.00;100891.52;108779;1258;59468;-70
2023/03/21 01:19:17;;;;;;;30.30;19.90;;;;;;;7.43;100.00;100891.35;108640;1258;60131;-70
2023/03/21 01:21:53;;;;;;;25.20;18.20;;;;;;;7.44;100.00;100893.21;108635;1258;74540;-70
2023/03/21 01:24:20;;;;;;;28.30;20.00;;;;;;;7.44;100.00;100887.41;108696;1258;70028;-70
2023/03/21 01:26:47;;;;;;;32.30;20.90;;;;;;;7.43;100.00;100889.11;108732;1258;70932;-70
2023/03/21 01:29:14;;;;;;;29.60;21.40;;;;;;;7.43;100.00;100884.07;108556;1260;59812;-70
2023/03/21 01:31:41;;;;;;;31.20;21.70;;;;;;;7.43;100.00;100882.42;108772;1257;59010;-70
2023/03/21 01:34:08;;;;;;;28.80;20.90;;;;;;;7.42;100.00;100882.48;108666;1259;73469;-71
2023/03/21 01:36:35;;;;;;;31.30;21.30;;;;;;;7.42;100.00;100883.94;108672;1258;70268;-71
2023/03/21 01:39:03;;;;;;;30.50;20.90;;;;;;;7.43;100.00;100885.41;108776;1258;72547;-71
2023/03/21 01:41:32;;;;;;;31.80;21.50;;;;;;;7.42;100.00;100880.20;108697;1258;62486;-70
2023/03/21 01:44:14;;;;;;;31.40;21.10;;;;;;;7.44;100.00;100880.80;108636;1258;59076;-70
2023/03/21 01:46:48;;;;;;;32.10;22.00;;;;;;;7.42;100.00;100881.48;108746;1258;73469;-70
2023/03/21 01:49:37;;;;;;;28.20;21.50;;;;;;;7.42;100.00;100876.95;108709;1258;71058;-70
2023/03/21 01:52:09;;;;;;;30.10;21.00;;;;;;;7.42;100.00;100875.32;108632;1258;72552;-70
2023/03/21 01:54:46;;;;;;;33.70;21.90;;;;;;;7.42;100.00;100876.21;108759;1258;61353;-70
2023/03/21 01:57:20;;;;;;;30.60;21.80;;;;;;;7.41;100.00;100871.23;108628;1258;58957;-70
2023/03/21 01:59:50;;;;;;;32.00;21.10;;;;;;;7.42;100.00;100870.92;108768;1258;74655;-70
2023/03/21 02:02:25;;;;;;;31.10;22.20;;;;;;;7.41;100.00;100865.77;108542;1259;71895;-70
2023/03/21 02:04:56;;;;;;;31.90;21.10;;;;;;;7.41;100.00;100867.73;108632;1258;72427;-71
2023/03/21 02:07:34;;;;;;;32.20;21.70;;;;;;;7.42;100.00;100866.58;108680;1258;61228;-70
2023/03/21 02:10:06;;;;;;;31.00;22.20;;;;;;;7.42;100.00;100867.94;108765;1258;59259;-70
2023/03/21 02:12:33;;;;;;;36.20;22.80;;;;;;;7.43;100.00;100862.74;108577;1258;72583;-70
2023/03/21 02:15:00;;;;;;;32.20;21.70;;;;;;;7.44;100.00;100859.23;108634;1261;70049;-70
2023/03/21 02:17:53;;;;;;;33.80;21.50;;;;;;;7.45;100.00;100857.59;108775;1257;72764;-70
2023/03/21 02:20:53;;;;;;;28.90;21.40;;;;;;;7.45;100.00;100853.52;108722;1258;59794;-69
2023/03/21 02:23:41;;;;;;;34.00;21.40;;;;;;;7.45;100.00;100851.04;108657;1258;58959;-69
2023/03/21 02:26:42;;;;;;;35.30;22.40;;;;;;;7.44;100.00;100845.38;108671;1258;72160;-69
2023/03/21 02:29:23;;;;;;;29.40;21.10;;;;;;;7.44;100.00;100843.45;108769;1261;72069;-69
2023/03/21 02:32:01;;;;;;;34.50;22.30;;;;;;;7.44;100.00;100840.10;108669;1258;71480;-69
2023/03/21 02:34:51;;;;;;;31.90;21.00;;;;;;;7.45;100.00;100838.30;108672;1258;60118;-70
2023/03/21 02:37:30;;;;;;;31.60;20.90;;;;;;;7.45;100.00;100834.37;108767;1258;60082;-69
2023/03/21 02:40:29;;;;;;;34.50;21.90;;;;;;;7.46;100.00;100831.31;108708;1258;74706;-69
2023/03/21 02:43:16;;;;;;;30.20;20.90;;;;;;;7.47;100.00;100832.27;108758;1257;71968;-70
2023/03/21 02:46:17;;;;;;;29.40;20.70;;;;;;;7.49;100.00;100832.77;108635;1257;71527;-70
2023/03/21 02:48:57;;;;;;;29.40;20.50;;;;;;;7.50;100.00;100831.10;108784;1258;59998;-69
2023/03/21 02:51:26;;;;;;;29.30;20.70;;;;;;;7.51;100.00;100834.84;108591;1258;59298;-70
2023/03/21 02:53:59;;;;;;;30.30;19.90;;;;;;;7.53;100.00;100830.23;108785;1257;73630;-70
2023/03/21 02:56:49;;;;;;;29.20;19.30;;;;;;;7.58;100.00;100823.45;108679;1258;71838;-70
2023/03/21 02:59:18;;;;;;;26.40;20.00;;;;;;;7.60;100.00;100822.13;108646;1257;72461;-70
2023/03/21 03:01:45;;;;;;;31.20;19.60;;;;;;;7.64;100.00;100822.32;108627;1258;60498;-69
2023/03/21 03:04:20;;;;;;;29.60;19.40;;;;;;;7.65;100.00;100822.50;108607;1258;60443;-70
2023/03/21 03:07:07;;;;;;;27.40;19.00;;;;;;;7.68;100.00;100822.79;108636;1258;74822;-70
2023/03/21 03:09:50;;;;;;;27.10;19.10;;;;;;;7.69;100.00;100821.55;108804;1258;70588;-69
2023/03/21 03:12:47;;;;;;;31.90;21.90;;;;;;;7.70;100.00;100823.41;108709;1258;72401;-70
2023/03/21 03:15:34;;;;;;;26.70;19.20;;;;;;;7.72;100.00;100819.70;108730;1258;59410;-70
2023/03/21 03:18:51;;;;;;;28.70;18.60;;;;;;;7.74;100.00;100820.79;108741;1258;60103;-70
2023/03/21 03:21:42;;;;;;;27.30;18.00;;;;;;;7.75;100.00;100818.34;108594;1259;73180;-70
2023/03/21 03:24:21;;;;;;;26.80;18.60;;;;;;;7.77;100.00;100817.30;108872;1258;70224;-70
2023/03/21 03:27:14;;;;;;;28.90;18.30;;;;;;;7.78;100.00;100812.80;108825;1258;72703;-70
2023/03/21 03:29:46;;;;;;;29.20;18.30;;;;;;;7.80;100.00;100811.73;108754;1258;60125;-70
2023/03/21 03:32:18;;;;;;;26.50;17.90;;;;;;;7.81;100.00;100806.54;108756;1260;60067;-68
2023/03/21 03:34:50;;;;;;;23.80;16.20;;;;;;;7.82;100.00;100809.92;108725;1258;73173;-68
2023/03/21 03:37:25;;;;;;;27.00;17.40;;;;;;;7.86;100.00;100809.76;108680;1259;70015;-68
2023/03/21 03:39:58;;;;;;;20.70;16.10;;;;;;;7.88;100.00;100809.73;108787;1259;72699;-68
2023/03/21 03:42:30;;;;;;;25.30;17.10;;;;;;;7.89;100.00;100806.80;108762;1260;61170;-68
2023/03/21 03:44:57;;;;;;;23.00;16.50;;;;;;;7.89;100.00;100806.37;108726;1258;60119;-68
2023/03/21 03:47:24;;;;;;;23.60;17.10;;;;;;;7.90;100.00;100808.29;108872;1258;73164;-68
2023/03/21 03:50:08;;;;;;;22.60;16.90;;;;;;;7.92;100.00;100801.66;108792;1258;70666;-68
2023/03/21 03:52:42;;;;;;;25.90;16.70;;;;;;;7.94;100.00;100806.40;108838;1258;74198;-69
2023/03/21 03:55:25;;;;;;;25.90;16.90;;;;;;;7.96;100.00;100806.78;108799;1258;60960;-69
2023/03/21 03:57:53;;;;;;;24.80;17.30;;;;;;;7.96;100.00;100804.60;108852;1258;59391;-69
2023/03/21 04:00:20;;;;;;;26.50;17.20;;;;;;;7.96;100.00;100804.88;108808;1258;73166;-69
2023/03/21 04:02:47;;;;;;;25.80;16.20;;;;;;;7.96;100.00;100801.83;108641;1262;69645;-69
2023/03/21 04:05:14;;;;;;;24.90;16.60;;;;;;;7.96;100.00;100802.84;108667;1260;72338;-68
2023/03/21 04:07:40;;;;;;;23.10;16.80;;;;;;;7.96;100.00;100802.16;108787;1258;60375;-69
2023/03/21 04:10:08;;;;;;;24.00;16.80;;;;;;;7.97;100.00;100803.30;108824;1260;59239;-68
2023/03/21 04:12:34;;;;;;;21.60;16.90;;;;;;;7.98;100.00;100798.80;108749;1260;72294;-69
2023/03/21 04:15:01;;;;;;;21.60;15.30;;;;;;;7.99;100.00;100801.02;108828;1258;69711;-69
2023/03/21 04:17:38;;;;;;;22.30;16.80;;;;;;;7.98;100.00;100802.53;108685;1258;71494;-69
2023/03/21 04:20:06;;;;;;;23.20;16.50;;;;;;;7.98;100.00;100799.40;108739;1260;61464;-69
2023/03/21 04:22:44;;;;;;;23.60;17.60;;;;;;;7.98;100.00;100800.25;108757;1258;59061;-69
2023/03/21 04:25:12;;;;;;;24.80;17.00;;;;;;;7.98;100.00;100798.31;108851;1258;72144;-70
2023/03/21 04:27:50;;;;;;;24.40;16.70;;;;;;;7.96;100.00;100800.38;108847;1258;71384;-70
2023/03/21 04:30:23;;;;;;;24.90;16.90;;;;;;;7.95;100.00;100801.20;108799;1258;73584;-70
2023/03/21 04:32:53;;;;;;;22.40;15.50;;;;;;;7.94;100.00;100798.08;108854;1258;59634;-70
2023/03/21 04:35:20;;;;;;;23.10;16.80;;;;;;;7.93;100.00;100798.94;108734;1259;60080;-70
2023/03/21 04:37:46;;;;;;;22.70;16.40;;;;;;;7.94;100.00;100795.48;108694;1259;75463;-70
2023/03/21 04:40:16;;;;;;;24.50;17.20;;;;;;;7.93;100.00;100795.08;108868;1258;69247;-70
2023/03/21 04:42:44;;;;;;;26.10;16.90;;;;;;;7.93;100.00;100793.89;108750;1258;71478;-70
2023/03/21 04:45:11;;;;;;;24.70;17.10;;;;;;;7.93;100.00;100793.68;108768;1258;59697;-70
2023/03/21 04:47:38;;;;;;;21.80;16.60;;;;;;;7.92;100.00;100791.67;108698;1258;60501;-69
2023/03/21 04:50:05;;;;;;;25.90;18.20;;;;;;;7.92;100.00;100787.63;108848;1258;73099;-70
2023/03/21 04:52:31;;;;;;;23.00;16.60;;;;;;;7.92;100.00;100783.91;108848;1258;71149;-70
2023/03/21 04:54:58;;;;;;;23.40;17.20;;;;;;;7.92;100.00;100783.25;108742;1259;74147;-70
2023/03/21 04:57:25;;;;;;;24.50;17.40;;;;;;;7.93;100.00;100787.02;108850;1257;60375;-70
2023/03/21 04:59:52;;;;;;;23.50;17.00;;;;;;;7.92;100.00;100790.05;108787;1258;61531;-70
2023/03/21 05:02:19;;;;;;;23.50;16.90;;;;;;;7.93;100.00;100791.58;108855;1258;72780;-70
2023/03/21 05:04:46;;;;;;;22.70;16.80;;;;;;;7.93;100.00;100791.23;108748;1259;71196;-70
2023/03/21 05:07:13;;;;;;;27.00;17.10;;;;;;;7.93;100.00;100789.44;108817;1258;71029;-70
2023/03/21 05:09:39;;;;;;;26.90;18.60;;;;;;;7.93;100.00;100789.80;108755;1258;59218;-70
2023/03/21 05:12:06;;;;;;;25.60;17.60;;;;;;;7.95;100.00;100785.94;108752;1258;59048;-70
2023/03/21 05:14:33;;;;;;;26.20;17.60;;;;;;;7.95;100.00;100785.58;108859;1258;72461;-70
2023/03/21 05:17:03;;;;;;;24.60;17.60;;;;;;;7.95;100.00;100787.10;108862;1258;71250;-70
2023/03/21 05:19:33;;;;;;;27.20;17.40;;;;;;;7.97;100.00;100787.30;108879;1258;73693;-70
2023/03/21 05:22:09;;;;;;;25.50;17.40;;;;;;;7.96;100.00;100788.10;108795;1259;60128;-69
2023/03/21 05:24:38;;;;;;;26.50;16.40;;;;;;;7.95;100.00;100788.15;108731;1259;58973;-69
2023/03/21 05:27:04;;;;;;;25.10;16.70;;;;;;;7.95;100.00;100787.29;108836;1258;74639;-69
2023/03/21 05:29:32;;;;;;;23.20;17.00;;;;;;;7.95;100.00;100787.80;108773;1259;69993;-69
2023/03/21 05:32:00;;;;;;;23.70;16.70;;;;;;;7.97;100.00;100783.38;108749;1258;72454;-69
2023/03/21 05:34:27;;;;;;;22.40;16.40;;;;;;;7.99;100.00;100781.48;108787;1257;59090;-69
2023/03/21 05:36:55;;;;;;;22.50;16.70;;;;;;;8.00;100.00;100781.34;108772;1259;60475;-69
2023/03/21 05:39:22;;;;;;;23.60;16.30;;;;;;;8.02;100.00;100783.30;108756;1261;72216;-69
2023/03/21 05:41:49;;;;;;;23.80;17.10;;;;;;;8.05;100.00;100784.73;108693;1258;70442;-71
2023/03/21 05:44:16;;;;;;;23.80;17.90;;;;;;;8.08;100.00;100783.02;108834;1258;72889;-71
2023/03/21 05:46:43;;;;;;;24.50;17.50;;;;;;;8.11;100.00;100780.77;108840;1258;60914;-72
2023/03/21 05:49:11;;;;;;;24.80;16.50;;;;;;;8.15;100.00;100781.23;108774;1258;60061;-71
2023/03/21 05:51:38;;;;;;;23.30;16.70;;;;;;;8.18;100.00;100783.40;108751;1258;73442;-71
2023/03/21 05:54:05;;;;;;;23.00;15.90;;;;;;;8.21;100.00;100779.45;108821;1258;71190;-71
2023/03/21 05:56:32;;;;;;;24.20;16.60;;;;;;;8.25;100.00;100782.54;108841;1258;72041;-71
2023/03/21 05:58:59;;;;;;;22.80;16.10;;;;;;;8.26;100.00;100787.14;108822;1258;61267;-71
2023/03/21 06:01:25;;;;;;;22.70;17.00;;;;;;;8.29;100.00;100785.22;108818;1258;60131;-71
2023/03/21 06:03:52;;;;;;;22.50;16.50;;;;;;;8.34;100.00;100783.34;108795;1258;74741;-71
2023/03/21 06:06:19;;;;;;;24.10;17.00;;;;;;;8.36;100.00;100783.42;108768;1258;71046;-71
2023/03/21 06:08:47;;;;;;;22.20;17.20;;;;;;;8.39;100.00;100781.75;108854;1261;71888;-72
2023/03/21 06:11:28;;;;;;;24.90;16.90;;;;;;;8.41;100.00;100782.81;108727;1258;59815;-72
2023/03/21 06:13:55;;;;;;;26.20;17.60;;;;;;;8.44;100.00;100781.84;108829;1258;60366;-71
2023/03/21 06:16:21;;;;;;;24.30;17.00;;;;;;;8.47;100.00;100783.27;108844;1258;74671;-71
2023/03/21 06:18:48;;;;;;;27.90;16.90;;;;;;;8.48;100.00;100779.97;108690;1260;71319;-72
2023/03/21 06:21:15;;;;;;;24.60;17.40;;;;;;;8.50;100.00;100784.64;108857;1258;72691;-71
2023/03/21 06:23:42;;;;;;;21.60;16.10;;;;;;;8.54;100.00;100785.52;108857;1258;60908;-71
2023/03/21 06:26:09;;;;;;;23.80;16.80;;;;;;;8.57;100.00;100784.90;108867;1258;59017;-71
2023/03/21 06:28:35;;;;;;;24.60;17.10;;;;;;;8.58;100.00;100787.05;108639;1260;74414;-71
2023/03/21 06:31:02;;;;;;;26.10;16.60;;;;;;;8.61;100.00;100789.20;108648;1258;59733;-71
2023/03/21 06:33:32;;;;;;;24.40;16.30;;;;;;;8.65;100.00;100787.20;108654;1260;71463;-71
2023/03/21 06:35:59;;;;;;;23.00;16.50;;;;;;;8.69;100.00;100787.02;108827;1258;59715;-71
2023/03/21 06:38:25;;;;;;;24.60;16.40;;;;;;;8.71;100.00;100789.80;108709;1258;60388;-71
2023/03/21 06:40:52;;;;;;;26.60;16.40;;;;;;;8.71;100.00;100791.55;108637;1260;74171;-72
2023/03/21 06:43:19;;;;;;;22.40;16.40;;;;;;;8.72;100.00;100793.17;108762;1258;72087;-71
2023/03/21 06:45:46;;;;;;;23.50;15.70;;;;;;;8.74;100.00;100790.02;108720;1258;71536;-72
2023/03/21 06:48:12;;;;;;;21.50;15.00;;;;;;;8.76;100.00;100790.14;108838;1259;59951;-72
2023/03/21 06:50:39;;;;;;;26.80;15.90;;;;;;;8.74;100.00;100789.63;108766;1260;60908;-72
2023/03/21 06:53:06;;;;;;;23.10;15.20;;;;;;;8.74;100.00;100790.47;108696;1258;74323;-71
2023/03/21 06:55:34;;;;;;;21.60;14.90;;;;;;;8.75;100.00;100791.66;108605;1257;70644;-72
2023/03/21 06:58:02;;;;;;;22.50;15.40;;;;;;;8.77;100.00;100791.61;108772;1257;72119;-73
2023/03/21 07:00:29;;;;;;;24.30;15.80;;;;;;;8.78;100.00;100793.09;108722;1258;59662;-71
2023/03/21 07:02:55;;;;;;;21.50;14.70;;;;;;;8.80;99.98;100794.16;108731;1258;59225;-71
2023/03/21 07:05:23;;;;;;;23.60;14.90;;;;;;;8.80;99.98;100794.79;108809;1260;73489;-71
2023/03/21 07:07:49;;;;;;;23.40;15.10;;;;;;;8.82;99.91;100793.34;108857;1258;69742;-71
2023/03/21 07:10:16;;;;;;;21.40;14.70;;;;;;;8.86;99.90;100795.08;108839;1261;72420;-71
2023/03/21 07:12:43;;;;;;;23.50;15.10;;;;;;;8.89;99.56;100799.48;108726;1258;59953;-71
2023/03/21 07:15:10;;;;;;;23.70;15.10;;;;;;;8.90;99.28;100798.27;108820;1258;59025;-71
2023/03/21 07:17:37;;;;;;;22.10;14.00;;;;;;;8.92;99.02;100799.48;108798;1258;73516;-71
2023/03/21 07:20:07;;;;;;;21.90;13.90;;;;;;;8.96;98.90;100796.15;108658;1262;69929;-71
2023/03/21 07:22:34;;;;;;;22.10;14.40;;;;;;;8.99;98.76;100799.14;108819;1258;71906;-71
2023/03/21 07:25:01;;;;;;;22.10;14.60;;;;;;;9.04;98.62;100799.15;108708;1258;61012;-71
2023/03/21 07:27:31;;;;;;;22.50;14.40;;;;;;;9.08;98.24;100798.63;108767;1259;59251;-70
2023/03/21 07:29:58;;;;;;;22.80;14.20;;;;;;;9.11;98.21;100800.36;108717;1258;74828;-70
2023/03/21 07:32:28;;;;;;;23.20;13.80;;;;;;;9.14;97.62;100798.77;108759;1258;69494;-70
2023/03/21 07:34:55;;;;;;;23.20;14.20;;;;;;;9.17;97.08;100795.52;108733;1259;72459;-71
2023/03/21 07:37:22;;;;;;;22.70;13.40;;;;;;;9.20;96.93;100794.64;108813;1260;58970;-71
2023/03/21 07:39:50;;;;;;;21.80;13.90;;;;;;;9.23;96.67;100791.46;108737;1258;59588;-70
2023/03/21 07:42:17;;;;;;;20.80;12.90;;;;;;;9.27;96.33;100786.81;108824;1258;73448;-70
2023/03/21 07:44:44;;;;;;;18.20;12.10;;;;;;;9.33;96.31;100779.51;108827;1259;71083;-71
2023/03/21 07:47:11;;;;;;;19.90;13.40;;;;;;;9.39;95.60;100777.79;108703;1259;71527;-70
2023/03/21 07:49:37;;;;;;;20.20;12.50;;;;;;;9.49;95.62;100779.08;108833;1258;59021;-71
2023/03/21 07:52:06;;;;;;;20.30;11.80;;;;;;;9.58;95.06;100773.77;108838;1260;58915;-70
2023/03/21 07:54:33;;;;;;;20.90;12.20;;;;;;;9.68;94.01;100776.12;108724;1258;73750;-70
2023/03/21 07:56:59;;;;;;;19.10;12.20;;;;;;;9.80;93.63;100774.80;108822;1259;70478;-70
2023/03/21 07:59:26;;;;;;;20.80;12.20;;;;;;;9.90;93.16;100770.34;108787;1258;72502;-70
2023/03/21 08:01:53;;;;;;;20.10;11.20;;;;;;;10.04;92.84;100771.79;108839;1258;61645;-70
2023/03/21 08:04:20;;;;;;;19.50;11.40;;;;;;;10.16;91.98;100775.56;108835;1258;60333;-71
2023/03/21 08:06:46;;;;;;;19.90;11.50;;;;;;;10.27;90.64;100777.47;108890;1258;73375;-71
2023/03/21 08:09:13;;;;;;;16.40;10.80;;;;;;;10.39;90.28;100774.01;108856;1258;69996;-70
2023/03/21 08:11:40;;;;;;;19.00;11.40;;;;;;;10.49;89.14;100773.53;108758;1258;71579;-70
2023/03/21 08:14:07;;;;;;;19.20;10.50;;;;;;;10.61;88.73;100774.36;108764;1261;60788;-71
2023/03/21 08:16:34;;;;;;;15.90;9.90;;;;;;;10.73;87.97;100772.05;108826;1258;59103;-71
2023/03/21 08:19:01;;;;;;;19.70;10.90;;;;;;;10.85;87.33;100775.14;108841;1258;74938;-71
2023/03/21 08:21:27;;;;;;;18.90;9.90;;;;;;;10.84;85.28;100775.24;108740;1258;71787;-71
2023/03/21 08:23:54;;;;;;;18.20;10.10;;;;;;;10.85;85.56;100776.77;108762;1258;72435;-71
2023/03/21 08:26:24;;;;;;;17.60;10.90;;;;;;;10.85;85.56;100773.73;108687;1261;61731;-71
2023/03/21 08:28:51;;;;;;;16.80;10.40;;;;;;;10.86;85.16;100775.40;108733;1260;59543;-70
2023/03/21 08:31:20;;;;;;;18.00;10.30;;;;;;;10.88;85.23;100775.23;108814;1259;72898;-71
2023/03/21 08:33:52;;;;;;;17.80;10.50;;;;;;;10.96;85.69;100779.06;108777;1258;70838;-71
2023/03/21 08:36:22;;;;;;;18.70;10.20;;;;;;;11.04;85.11;100781.30;108723;1259;72664;-71
2023/03/21 08:38:53;;;;;;;18.10;10.80;;;;;;;11.09;84.57;100778.77;108810;1258;61488;-71
2023/03/21 08:41:20;;;;;;;16.70;9.00;;;;;;;11.10;83.81;100780.80;108767;1258;60392;-71
2023/03/21 08:43:48;;;;;;;17.40;10.50;;;;;;;11.10;83.49;100780.13;108751;1258;73513;-71
2023/03/21 08:46:15;;;;;;;16.70;10.30;;;;;;;11.12;83.80;100777.85;108649;1261;71026;-71
2023/03/21 08:48:42;;;;;;;18.80;10.50;;;;;;;11.20;83.83;100781.75;108838;1263;71905;-71
2023/03/21 08:51:08;;;;;;;18.10;10.00;;;;;;;11.23;83.28;100776.65;108853;1260;60091;-71
2023/03/21 08:53:35;;;;;;;17.50;10.30;;;;;;;11.24;82.92;100776.48;108866;1257;58967;-71
2023/03/21 08:56:02;;;;;;;15.50;8.60;;;;;;;11.26;82.25;100780.68;108867;1259;74525;-71
2023/03/21 08:58:29;;;;;;;20.50;10.80;;;;;;;11.24;82.20;100783.59;108806;1259;70930;-71
2023/03/21 09:00:55;;;;;;;19.00;10.20;;;;;;;11.22;81.97;100789.71;108711;1258;72689;-71
2023/03/21 09:03:22;;;;;;;15.50;10.80;;;;;;;11.19;82.38;100788.27;108744;1260;62561;-71
2023/03/21 09:05:52;;;;;;;18.80;11.30;;;;;;;11.09;82.06;100782.04;108807;1259;60097;-71
2023/03/21 09:08:22;;;;;;;18.10;10.60;;;;;;;11.09;82.62;100774.33;108758;1258;74223;-71
2023/03/21 09:10:53;;;;;;;18.80;10.60;;;;;;;11.12;82.89;100773.64;108863;1258;69662;-71
2023/03/21 09:13:21;;;;;;;19.20;11.40;;;;;;;11.12;83.18;100772.58;108761;1261;72499;-71
2023/03/21 09:15:48;;;;;;;17.10;10.10;;;;;;;11.10;83.19;100771.63;108744;1258;62267;-71
2023/03/21 09:18:16;;;;;;;17.30;10.40;;;;;;;11.12;83.49;100767.81;108830;1262;60038;-71
2023/03/21 09:20:45;;;;;;;18.40;10.20;;;;;;;11.14;83.75;100768.32;108822;1258;75872;-71
2023/03/21 09:23:13;;;;;;;21.20;11.30;;;;;;;11.18;83.24;100770.81;108814;1261;71074;-71
2023/03/21 09:25:41;;;;;;;21.90;12.10;;;;;;;11.19;82.35;100769.29;108629;1260;73180;-71
2023/03/21 09:28:08;;;;;;;19.90;10.60;;;;;;;11.27;82.77;100769.42;108818;1260;61329;-71
2023/03/21 09:30:35;;;;;;;17.40;11.00;;;;;;;11.33;82.36;100768.55;108672;1264;60423;-71
2023/03/21 09:33:07;;;;;;;18.80;9.80;;;;;;;11.39;81.61;100765.98;108861;1258;75408;-70
2023/03/21 09:35:34;;;;;;;18.50;10.00;;;;;;;11.51;82.08;100771.09;108679;1257;71182;-70
2023/03/21 09:38:01;;;;;;;18.70;10.70;;;;;;;11.55;80.98;100772.02;108725;1258;71793;-71
2023/03/21 09:40:34;;;;;;;17.70;10.00;;;;;;;11.55;80.70;100774.14;108832;1258;61818;-71
2023/03/21 09:43:27;;;;;;;17.40;9.70;;;;;;;11.60;80.71;100769.71;108865;1258;59195;-71
2023/03/21 09:46:07;;;;;;;18.80;10.20;;;;;;;11.78;81.24;100766.33;108759;1258;74522;-71
2023/03/21 09:48:57;;;;;;;19.10;9.50;;;;;;;11.95;80.41;100765.67;108787;1258;71087;-71
2023/03/21 09:51:30;;;;;;;20.00;10.20;;;;;;;12.02;79.13;100767.82;108720;1258;73692;-72
2023/03/21 09:54:02;;;;;;;16.00;9.80;;;;;;;12.08;78.69;100762.46;108748;1258;59662;-72
2023/03/21 09:56:30;;;;;;;17.10;9.60;;;;;;;12.14;77.78;100767.25;108817;1260;60346;-72
2023/03/21 09:58:59;;;;;;;18.30;9.40;;;;;;;12.21;77.21;100769.56;108848;1259;73837;-72
2023/03/21 10:01:31;;;;;;;15.00;8.80;;;;;;;12.32;76.94;100765.61;108863;1261;70987;-71
2023/03/21 10:04:02;;;;;;;16.30;9.00;;;;;;;12.49;76.43;100769.43;108858;1259;72417;-71
2023/03/21 10:06:29;;;;;;;18.10;9.50;;;;;;;12.68;76.32;100766.02;108842;1258;60675;-72
2023/03/21 10:09:01;;;;;;;17.20;9.20;;;;;;;12.86;75.75;100761.02;108811;1258;59118;-72
2023/03/21 10:11:36;;;;;;;17.10;8.70;;;;;;;12.91;74.44;100760.58;108698;1259;73327;-72
2023/03/21 10:14:11;;;;;;;14.10;8.50;;;;;;;12.93;74.13;100758.79;108723;1258;70232;-72
2023/03/21 10:16:44;;;;;;;15.80;9.20;;;;;;;12.98;73.93;100759.05;108847;1260;73202;-72
2023/03/21 10:19:14;;;;;;;17.20;9.20;;;;;;;12.94;73.77;100758.08;108724;1258;62037;-72
2023/03/21 10:21:46;;;;;;;13.50;7.80;;;;;;;12.90;73.84;100755.00;108857;1258;59407;-72
2023/03/21 10:24:28;;;;;;;18.40;8.40;;;;;;;12.88;74.45;100748.98;108804;1259;73569;-72
2023/03/21 10:26:55;;;;;;;16.10;9.30;;;;;;;12.83;74.60;100749.67;108770;1261;70539;-71
2023/03/21 10:29:30;;;;;;;15.50;8.80;;;;;;;12.76;74.77;100747.55;108757;1261;70612;-71
2023/03/21 10:31:57;;;;;;;16.90;9.20;;;;;;;12.65;74.60;100748.23;108730;1259;60561;-71
2023/03/21 10:34:31;;;;;;;16.60;8.80;;;;;;;12.53;74.97;100749.05;108828;1258;59105;-71
2023/03/21 10:37:02;;;;;;;15.90;8.50;;;;;;;12.48;75.52;100753.44;108863;1260;73142;-71
2023/03/21 10:39:38;;;;;;;13.60;7.50;;;;;;;12.46;75.90;100754.20;108810;1264;69744;-71
2023/03/21 10:42:12;;;;;;;15.50;8.20;;;;;;;12.42;76.14;100752.15;108871;1260;72012;-71
2023/03/21 10:44:39;;;;;;;14.50;8.30;;;;;;;12.39;76.28;100749.94;108704;1259;60485;-71
2023/03/21 10:47:08;;;;;;;17.00;9.00;;;;;;;12.37;76.45;100752.29;108726;1259;60648;-71
2023/03/21 10:49:36;;;;;;;15.10;9.00;;;;;;;12.35;77.45;100750.71;108848;1258;73566;-71
2023/03/21 10:52:27;;;;;;;17.70;9.40;;;;;;;12.33;78.29;100752.04;108855;1258;71493;-72
2023/03/21 10:55:21;;;;;;;19.40;9.10;;;;;;;12.32;78.93;100749.89;108613;1259;73669;-71
2023/03/21 10:57:53;;;;;;;15.80;8.90;;;;;;;12.26;79.80;100746.17;108714;1259;63722;-71
2023/03/21 11:00:24;;;;;;;16.30;9.10;;;;;;;12.23;80.12;100747.04;108746;1258;60370;-71
2023/03/21 11:02:52;;;;;;;16.40;9.20;;;;;;;12.17;80.93;100741.35;108735;1258;73677;-71
2023/03/21 11:05:24;;;;;;;15.70;9.50;;;;;;;12.10;80.90;100741.09;108693;1258;70085;-71
2023/03/21 11:08:03;;;;;;;15.90;8.70;;;;;;;12.06;81.14;100732.60;108722;1261;72507;-71
2023/03/21 11:10:36;;;;;;;16.70;9.10;;;;;;;12.12;82.32;100730.81;108843;1258;60800;-72
2023/03/21 11:13:17;;;;;;;15.40;8.60;;;;;;;12.19;82.42;100730.70;108788;1258;60429;-72
2023/03/21 11:15:43;;;;;;;17.00;8.60;;;;;;;12.23;81.93;100730.88;108846;1258;74393;-72
2023/03/21 11:18:18;;;;;;;14.70;8.30;;;;;;;12.27;81.98;100730.79;108866;1258;72421;-72
2023/03/21 11:20:54;;;;;;;15.10;8.10;;;;;;;12.27;82.25;100727.61;108719;1258;72842;-71
2023/03/21 11:23:26;;;;;;;14.30;7.90;;;;;;;12.28;82.77;100725.49;108760;1261;62052;-72